Atascocita, Texas
Current Conditions -  °F | °C
As of 11:53 AM on Friday 31 Oct 2014 (Local Time) from KIAH Reporting Station
Scattered Clouds Scattered Clouds  
Wind Chill: 74°   Ceiling: Unl
Heat Index: 74°   Visibility: 10mi
Dew Point: 48°   Wind: 13mph
Humidity: 40%   Direction: 360°N
Pressure: 30.21"   Gusts: NA
Location:  29.9871°N, 95.1826°W
Report Text: KIAH 311653Z 36011KT 10SM SCT250 23/09 A3021 RMK AO2 SLP228 T02330089
Loading
Personal Weather Stations






























Interactive Weather Map
Tropical Storm Tracking
New forecast layout! Learn more

10-Day Weather Forecast

Advertisements
Track Severe Weather on mobile